首页
METAR-TAF:

METAR-TAF

机场 :

蒙特雷, 墨西哥

纬度: 25-47N, 经度: 100-06W, 海拔: 387米

当前天气观测

该预报发布于1小时和10分钟前的22:40 UTC
风速5节,风向
温度 30°C
湿度 62%
气压 1016 hPa
能見度: 12.9公里
少量云层高于3000英尺
多云层高于20000英尺

METAR: MMMY 152240Z 10005KT 8SM FEW030 BKN200 30/22 A2999 RMK 8/102 CB W ISOL AC

时间: 18:50 (23:50 UTC)

预报

该预报发布于19分钟前的23:31 UTC
预报有效从16日的 00点(UTC)到 17日的 00点(UTC)
风速5节,风向
能見度: 10公里
散云层高于3000英尺
多云层高于20000英尺
短暂存在
从 16日的 00点(UTC)到 16日的 04点(UTC)
多云层高于3000英尺
附近有, 雨
从 16日的 0400点(UTC)
风速6节,风向
能見度: 10公里
散云层高于1500英尺
多云层高于8000英尺
短暂存在
从 16日的 11点(UTC)到 16日的 15点(UTC)
能見度: 3.2公里
多云层高于1000英尺
轻雾, 霾
从 16日的 1600点(UTC)
风速6节,风向
能見度: 10公里
多云层高于2000英尺
从 16日的 1900点(UTC)
风速10节,风向东转东南
能見度: 10公里
多云层高于3000英尺
多云层高于20000英尺

TAF: MMMY 152331Z 1600/1700 10005KT P6SM SCT030 BKN200 TX32/1621Z TN23/1610Z TEMPO 1600/1604 VC RA BKN030 FM160400 10006KT P6SM SCT015 BKN080 TEMPO 1611/1615 2SM BR HZ BKN010 FM161600 10006KT P6SM BKN020 FM161900 12010KT P6SM BKN030 BKN200

超过4000个机场的气象观测和天气预报(METAR&TAF报告)。

可查询的气象台以黄色和红色小点在地图上表示。

将鼠标移到小点上方,可查看气象台名称。

然后点击查看天气观测和预报。

如需切换地图:点击带黑十字的绿色按钮放大地图;点击带横线的绿色按钮缩小地图;或者点击绿色箭头查看邻近地区的地图。


METAR-TAF: